Time;durP1;ratioP1;P1;durP2;ratioP2;P2;SDS_P1;SDS_P2;PMS_P1;PMS_P2;Temp;Humidity;BMP_temperature;BMP_pressure;BME280_temperature;BME280_humidity;BME280_pressure;Samples;Min_cycle;Max_cycle;Signal;HPM_P1;HPM_P2
2024/02/25 00:02:09;;;;;;;1.10;0.00;;;5.50;99.90;;;;;;5035547;28;20029;-80
2024/02/25 00:04:34;;;;;;;0.60;0.00;;;5.50;99.90;;;;;;5034854;28;20029;-79
2024/02/25 00:07:00;;;;;;;0.88;0.00;;;5.50;99.90;;;;;;5035790;28;20124;-80
2024/02/25 00:09:25;;;;;;;0.10;0.00;;;5.50;99.90;;;;;;5037257;28;20025;-80
2024/02/25 00:11:52;;;;;;;2.95;0.28;;;5.50;99.90;;;;;;5037574;28;20082;-79
2024/02/25 00:14:17;;;;;;;1.08;0.00;;;5.50;99.90;;;;;;5035787;28;20037;-80
2024/02/25 00:16:43;;;;;;;2.05;0.00;;;5.50;99.90;;;;;;5035819;28;20120;-79
2024/02/25 00:19:10;;;;;;;0.22;0.00;;;5.60;99.90;;;;;;5036740;28;20039;-79
2024/02/25 00:21:36;;;;;;;2.08;0.00;;;5.60;99.90;;;;;;5039611;28;20022;-79
2024/02/25 00:24:03;;;;;;;1.98;0.05;;;5.60;99.90;;;;;;5041163;28;20021;-79
2024/02/25 00:26:29;;;;;;;3.22;0.00;;;;;;;;;;5042931;28;20439;-80
2024/02/25 00:28:55;;;;;;;0.20;0.00;;;5.50;99.90;;;;;;5046038;28;20101;-79
2024/02/25 00:31:20;;;;;;;1.13;0.00;;;5.60;99.90;;;;;;5044202;28;20499;-80
2024/02/25 00:33:46;;;;;;;1.38;0.00;;;5.60;99.90;;;;;;5041153;28;20041;-80
2024/02/25 00:36:12;;;;;;;2.10;0.00;;;5.60;99.90;;;;;;5041737;28;20088;-79
2024/02/25 00:38:37;;;;;;;0.00;0.00;;;5.60;99.90;;;;;;5040760;28;20040;-79
2024/02/25 00:41:05;;;;;;;1.83;0.00;;;5.50;99.90;;;;;;5043404;28;20025;-80
2024/02/25 00:43:32;;;;;;;1.58;0.00;;;5.60;99.90;;;;;;5042674;28;20029;-80
2024/02/25 00:45:58;;;;;;;2.80;0.10;;;;;;;;;;5043250;28;20029;-79
2024/02/25 00:48:24;;;;;;;2.15;0.10;;;5.60;99.90;;;;;;5042843;28;20033;-79
2024/02/25 00:50:49;;;;;;;4.00;0.08;;;5.60;99.90;;;;;;5043946;28;20025;-80
2024/02/25 00:53:16;;;;;;;0.50;0.00;;;5.60;99.90;;;;;;5044078;28;20033;-79
2024/02/25 00:55:42;;;;;;;1.05;0.00;;;5.60;99.90;;;;;;5042687;28;20022;-80
2024/02/25 00:58:08;;;;;;;4.10;0.10;;;;;;;;;;5042273;28;20435;-79
2024/02/25 01:00:34;;;;;;;2.08;0.00;;;5.70;99.90;;;;;;5045186;28;20030;-79
2024/02/25 01:02:59;;;;;;;2.92;0.47;;;5.60;99.90;;;;;;5043730;28;20035;-79
2024/02/25 01:05:26;;;;;;;6.18;0.05;;;5.60;99.90;;;;;;5043032;28;20025;-80
2024/02/25 01:07:53;;;;;;;0.95;0.00;;;;;;;;;;5045431;28;20029;-80
2024/02/25 01:10:19;;;;;;;0.28;0.00;;;;;;;;;;5046675;28;20053;-79
2024/02/25 01:12:45;;;;;;;1.05;0.08;;;;;;;;;;5045970;28;20021;-80
2024/02/25 01:15:10;;;;;;;0.10;0.00;;;5.60;99.90;;;;;;5044988;28;20037;-80
2024/02/25 01:17:36;;;;;;;2.03;0.20;;;5.60;99.90;;;;;;5042551;28;20018;-80
2024/02/25 01:20:02;;;;;;;1.60;0.17;;;5.60;99.90;;;;;;5042829;28;20013;-80
2024/02/25 01:22:27;;;;;;;1.85;0.00;;;5.70;99.90;;;;;;5043100;28;20025;-79
2024/02/25 01:24:53;;;;;;;1.65;0.00;;;5.70;99.90;;;;;;5041286;28;20044;-80
2024/02/25 01:27:19;;;;;;;2.10;0.08;;;5.60;99.90;;;;;;5046244;28;20025;-79
2024/02/25 01:29:44;;;;;;;0.60;0.00;;;5.60;99.90;;;;;;5042725;28;20017;-80
2024/02/25 01:32:10;;;;;;;0.63;0.05;;;5.60;99.90;;;;;;5042658;28;20032;-79
2024/02/25 01:34:36;;;;;;;4.47;0.00;;;5.70;99.90;;;;;;5042024;28;20527;-79
2024/02/25 01:37:01;;;;;;;0.90;0.00;;;5.70;99.90;;;;;;5038629;28;20500;-78
2024/02/25 01:39:27;;;;;;;0.20;0.00;;;5.60;99.90;;;;;;5041177;28;20029;-79
2024/02/25 01:41:57;;;;;;;1.13;0.10;;;5.60;99.90;;;;;;5040204;28;20052;-79
2024/02/25 01:44:23;;;;;;;0.57;0.10;;;5.60;99.90;;;;;;5038067;28;20022;-78
2024/02/25 01:46:48;;;;;;;1.08;0.10;;;5.60;99.90;;;;;;5037544;28;20024;-79
2024/02/25 01:49:18;;;;;;;1.02;0.10;;;5.60;99.90;;;;;;5038502;28;20481;-78
2024/02/25 01:51:45;;;;;;;2.72;0.00;;;5.70;99.90;;;;;;5037162;28;20125;-79
2024/02/25 01:54:11;;;;;;;4.07;0.25;;;;;;;;;;5039988;28;20033;-79
2024/02/25 01:56:38;;;;;;;0.40;0.00;;;5.50;99.90;;;;;;5040587;28;20029;-79
2024/02/25 01:59:03;;;;;;;1.65;0.00;;;5.50;99.90;;;;;;5040563;28;20107;-79
2024/02/25 02:01:34;;;;;;;2.75;0.00;;;5.50;99.90;;;;;;5041501;28;20029;-79
2024/02/25 02:04:01;;;;;;;2.60;0.00;;;5.50;99.90;;;;;;5041341;28;20122;-79
2024/02/25 02:06:27;;;;;;;0.50;0.00;;;;;;;;;;5040343;28;20367;-79
2024/02/25 02:08:53;;;;;;;2.67;0.20;;;5.50;99.90;;;;;;5039924;28;20026;-79
2024/02/25 02:11:21;;;;;;;0.25;0.08;;;7.20;99.90;;;;;;5039354;28;20017;-78
2024/02/25 02:13:46;;;;;;;3.40;0.00;;;5.50;99.90;;;;;;5040836;28;20022;-79
2024/02/25 02:16:13;;;;;;;2.20;0.47;;;5.50;99.90;;;;;;5039235;28;20026;-79
2024/02/25 02:18:41;;;;;;;1.27;0.00;;;5.50;99.90;;;;;;5040783;28;20033;-79
2024/02/25 02:21:10;;;;;;;0.80;0.00;;;5.50;99.90;;;;;;5037640;28;20028;-79
2024/02/25 02:23:36;;;;;;;1.23;0.05;;;8.50;99.90;;;;;;5039615;28;20033;-79
2024/02/25 02:26:02;;;;;;;2.67;0.20;;;5.50;99.90;;;;;;5039232;28;20384;-79
2024/02/25 02:28:27;;;;;;;2.00;0.13;;;5.50;99.90;;;;;;5037390;28;20071;-79
2024/02/25 02:30:53;;;;;;;0.57;0.00;;;5.40;99.90;;;;;;5039752;28;20487;-79
2024/02/25 02:33:19;;;;;;;0.90;0.10;;;5.40;99.90;;;;;;5039560;28;20032;-79
2024/02/25 02:35:44;;;;;;;0.98;0.13;;;5.40;99.90;;;;;;5039512;28;20033;-79
2024/02/25 02:38:11;;;;;;;0.57;0.10;;;5.40;99.90;;;;;;5038372;28;20072;-79
2024/02/25 02:40:37;;;;;;;0.65;0.40;;;6.90;99.90;;;;;;5039474;28;20021;-79
2024/02/25 02:43:52;;;;;;;2.60;0.10;;;5.40;99.90;;;;;;5039839;28;20531;-79
2024/02/25 02:46:18;;;;;;;1.58;0.30;;;5.40;99.90;;;;;;5037756;28;20509;-79
2024/02/25 02:48:43;;;;;;;2.00;0.25;;;5.40;99.90;;;;;;5037176;28;20037;-79
2024/02/25 02:51:09;;;;;;;2.58;0.40;;;5.40;99.90;;;;;;5035643;28;20416;-79
2024/02/25 02:53:35;;;;;;;0.70;0.28;;;5.30;99.90;;;;;;5040149;28;20033;-79
2024/02/25 02:56:00;;;;;;;2.08;0.50;;;5.30;99.90;;;;;;5038897;28;20400;-80
2024/02/25 02:58:26;;;;;;;1.70;0.60;;;;;;;;;;5036521;28;20029;-80
2024/02/25 03:00:52;;;;;;;1.25;0.25;;;5.30;99.90;;;;;;5037167;28;20108;-79
2024/02/25 03:03:17;;;;;;;4.45;1.08;;;5.30;99.90;;;;;;5037826;28;20025;-79
2024/02/25 03:05:43;;;;;;;1.98;0.80;;;5.40;99.90;;;;;;5038629;28;20104;-79
2024/02/25 03:08:09;;;;;;;1.67;0.65;;;5.30;99.90;;;;;;5037253;28;20018;-79
2024/02/25 03:10:36;;;;;;;2.03;0.73;;;5.40;99.90;;;;;;5037760;28;20025;-79
2024/02/25 03:13:01;;;;;;;1.17;0.47;;;5.40;99.90;;;;;;5038030;28;20389;-79
2024/02/25 03:15:27;;;;;;;1.50;0.73;;;5.40;99.90;;;;;;5037318;28;20026;-79
2024/02/25 03:17:53;;;;;;;3.58;0.85;;;5.30;99.90;;;;;;5036042;28;20507;-77
2024/02/25 03:20:19;;;;;;;1.05;0.80;;;5.40;99.90;;;;;;5036236;28;20036;-77
2024/02/25 03:22:45;;;;;;;2.97;0.50;;;5.30;99.90;;;;;;5035076;28;20040;-77
2024/02/25 03:25:12;;;;;;;1.60;0.60;;;5.30;99.90;;;;;;5035007;28;20498;-77
2024/02/25 03:27:37;;;;;;;1.90;1.20;;;5.40;99.90;;;;;;5034629;28;20056;-77
2024/02/25 03:30:09;;;;;;;2.25;0.82;;;5.40;99.90;;;;;;5035426;28;20043;-77
2024/02/25 03:32:34;;;;;;;2.67;0.68;;;5.30;99.90;;;;;;5034418;28;20032;-77
2024/02/25 03:35:00;;;;;;;4.45;0.80;;;5.40;99.90;;;;;;5036605;28;20128;-77
2024/02/25 03:37:26;;;;;;;1.60;0.80;;;5.40;99.90;;;;;;5035472;28;20452;-77
2024/02/25 03:39:52;;;;;;;2.67;0.85;;;5.30;99.90;;;;;;5035444;28;20070;-77
2024/02/25 03:42:17;;;;;;;2.78;0.85;;;5.40;99.90;;;;;;5035392;28;20100;-77
2024/02/25 03:44:43;;;;;;;2.15;1.10;;;5.40;99.90;;;;;;5036138;28;20026;-78
2024/02/25 03:47:08;;;;;;;4.05;1.20;;;5.40;99.90;;;;;;5035675;28;20420;-78
2024/02/25 03:49:34;;;;;;;2.63;1.25;;;5.40;99.90;;;;;;5036826;28;20100;-77
2024/02/25 03:52:00;;;;;;;3.05;1.05;;;5.40;99.90;;;;;;5035115;28;20180;-77
2024/02/25 03:54:25;;;;;;;2.50;1.52;;;5.40;99.90;;;;;;5034324;28;20029;-77
2024/02/25 03:56:51;;;;;;;2.30;1.08;;;5.40;99.90;;;;;;5034531;28;20539;-77
2024/02/25 03:59:17;;;;;;;3.85;1.45;;;5.40;99.90;;;;;;5035328;28;20022;-77
2024/02/25 04:01:42;;;;;;;3.38;1.40;;;5.40;99.90;;;;;;5034698;28;20021;-77
2024/02/25 04:04:08;;;;;;;2.83;1.13;;;5.40;99.90;;;;;;5035831;28;20032;-77
2024/02/25 04:06:33;;;;;;;2.28;1.20;;;5.30;99.90;;;;;;5033400;28;20092;-77
2024/02/25 04:08:59;;;;;;;2.83;1.42;;;5.40;99.90;;;;;;5034465;28;20075;-77
2024/02/25 04:11:24;;;;;;;3.20;1.15;;;5.30;99.90;;;;;;5033562;28;20481;-77
2024/02/25 04:13:50;;;;;;;3.58;1.63;;;5.30;99.90;;;;;;5034797;28;20040;-77
2024/02/25 04:16:16;;;;;;;3.92;1.10;;;5.40;99.90;;;;;;5035660;28;20029;-77
2024/02/25 04:18:41;;;;;;;3.72;1.00;;;5.30;99.90;;;;;;5034870;28;20032;-78
2024/02/25 04:21:07;;;;;;;2.00;1.30;;;5.40;99.90;;;;;;5036460;28;20033;-77
2024/02/25 04:23:32;;;;;;;1.95;1.20;;;5.30;99.90;;;;;;5035715;28;20104;-78
2024/02/25 04:25:58;;;;;;;2.55;1.10;;;5.30;99.90;;;;;;5034848;28;20040;-77
2024/02/25 04:28:24;;;;;;;2.42;1.48;;;5.30;99.90;;;;;;5034704;28;20021;-77
2024/02/25 04:30:49;;;;;;;4.05;1.15;;;5.30;99.90;;;;;;5036552;28;20018;-78
2024/02/25 04:33:17;;;;;;;2.03;1.48;;;5.40;99.90;;;;;;5034363;28;20018;-78
2024/02/25 04:35:45;;;;;;;4.35;1.77;;;5.40;99.90;;;;;;5036046;28;20060;-77
2024/02/25 04:38:12;;;;;;;3.13;1.65;;;;;;;;;;5034822;28;20026;-77
2024/02/25 04:40:38;;;;;;;4.38;2.17;;;5.40;99.90;;;;;;5035318;28;20116;-77
2024/02/25 04:43:04;;;;;;;5.72;2.00;;;5.40;99.90;;;;;;5035848;28;20061;-77
2024/02/25 04:45:30;;;;;;;4.82;2.47;;;5.30;99.90;;;;;;5036029;28;20025;-77
2024/02/25 04:47:55;;;;;;;4.57;2.28;;;5.30;99.90;;;;;;5034187;28;20028;-78
2024/02/25 04:50:21;;;;;;;5.88;2.67;;;5.30;99.90;;;;;;5035865;28;20029;-77
2024/02/25 04:52:47;;;;;;;5.25;2.53;;;5.30;99.90;;;;;;5036119;28;20024;-77
2024/02/25 04:55:13;;;;;;;5.07;2.63;;;;;;;;;;5035787;28;20018;-78
2024/02/25 04:57:39;;;;;;;5.13;2.50;;;5.40;99.90;;;;;;5035944;28;20021;-78
2024/02/25 05:00:06;;;;;;;5.55;2.88;;;5.30;99.90;;;;;;5036403;28;20098;-77
2024/02/25 05:02:31;;;;;;;5.72;2.70;;;5.40;99.90;;;;;;5034609;28;20481;-77
2024/02/25 05:04:57;;;;;;;8.05;2.88;;;5.40;99.90;;;;;;5034466;28;20033;-78
2024/02/25 05:07:23;;;;;;;7.35;3.22;;;5.40;99.90;;;;;;5038494;28;20036;-78
2024/02/25 05:09:49;;;;;;;7.03;2.85;;;5.40;99.90;;;;;;5037746;28;20022;-77
2024/02/25 05:12:16;;;;;;;4.53;2.70;;;5.40;99.90;;;;;;5038988;28;20080;-77
2024/02/25 05:14:42;;;;;;;3.88;2.28;;;5.40;99.90;;;;;;5039940;28;20021;-77
2024/02/25 05:17:08;;;;;;;9.95;3.03;;;;;;;;;;5039010;28;20040;-77
2024/02/25 05:19:34;;;;;;;5.55;3.20;;;5.40;99.90;;;;;;5039286;28;20076;-78
2024/02/25 05:21:59;;;;;;;7.22;2.90;;;5.40;99.90;;;;;;5038954;28;20026;-78
2024/02/25 05:24:25;;;;;;;6.00;3.42;;;5.40;99.90;;;;;;5039025;28;20028;-77
2024/02/25 05:26:50;;;;;;;5.18;2.72;;;5.50;99.90;;;;;;5037592;28;20622;-77
2024/02/25 05:29:16;;;;;;;5.63;2.67;;;6.70;99.90;;;;;;5037492;28;20033;-77
2024/02/25 05:31:42;;;;;;;5.50;2.67;;;5.50;99.90;;;;;;5038608;28;20017;-77
2024/02/25 05:34:07;;;;;;;6.43;3.33;;;5.40;99.90;;;;;;5038347;28;20052;-78
2024/02/25 05:36:33;;;;;;;6.28;3.42;;;5.50;99.90;;;;;;5037386;28;20049;-77
2024/02/25 05:38:59;;;;;;;6.07;3.20;;;5.50;99.90;;;;;;5037853;28;20071;-78
2024/02/25 05:41:24;;;;;;;7.22;3.20;;;5.50;99.90;;;;;;5036746;28;20029;-78
2024/02/25 05:43:50;;;;;;;7.47;3.33;;;5.50;99.90;;;;;;5037770;28;20025;-78
2024/02/25 05:46:15;;;;;;;6.25;3.10;;;5.50;99.90;;;;;;5039182;28;20028;-77
2024/02/25 05:48:41;;;;;;;6.63;3.28;;;5.40;99.90;;;;;;5037734;28;20060;-78
2024/02/25 05:51:07;;;;;;;8.48;3.88;;;5.40;99.90;;;;;;5038245;28;20032;-78
2024/02/25 05:53:33;;;;;;;9.23;3.70;;;5.50;99.90;;;;;;5037699;28;20029;-77
2024/02/25 05:55:59;;;;;;;8.75;3.53;;;5.50;99.90;;;;;;5038667;28;20401;-78
2024/02/25 05:58:24;;;;;;;6.63;2.83;;;5.50;99.90;;;;;;5037797;28;20029;-77
2024/02/25 06:00:50;;;;;;;8.38;4.28;;;5.50;99.90;;;;;;5036397;28;20024;-77
2024/02/25 06:03:15;;;;;;;8.32;3.85;;;5.50;99.90;;;;;;5037792;28;20132;-78
2024/02/25 06:05:42;;;;;;;6.50;3.50;;;;;;;;;;5036391;28;20072;-78
2024/02/25 06:08:08;;;;;;;7.57;3.75;;;5.50;99.90;;;;;;5037584;28;20033;-78
2024/02/25 06:10:36;;;;;;;9.60;4.22;;;5.50;99.90;;;;;;5036050;28;20428;-78
2024/02/25 06:13:01;;;;;;;10.68;4.22;;;5.50;99.90;;;;;;5037143;28;20049;-77
2024/02/25 06:15:27;;;;;;;9.32;4.43;;;5.60;99.90;;;;;;5038306;28;20029;-77
2024/02/25 06:17:53;;;;;;;8.80;4.47;;;5.60;99.90;;;;;;5038266;28;20060;-78
2024/02/25 06:20:20;;;;;;;11.88;3.38;;;5.50;99.90;;;;;;5038370;28;20029;-77
2024/02/25 06:22:45;;;;;;;8.05;4.43;;;5.60;99.90;;;;;;5037978;28;20036;-77
2024/02/25 06:25:11;;;;;;;8.65;4.65;;;5.60;99.90;;;;;;5038555;28;20021;-78
2024/02/25 06:27:37;;;;;;;8.13;3.83;;;5.60;99.90;;;;;;5037902;28;20127;-77
2024/02/25 06:30:05;;;;;;;9.55;4.32;;;5.50;99.90;;;;;;5039302;28;20025;-77
2024/02/25 06:32:31;;;;;;;7.32;3.97;;;;;;;;;;5038512;28;20059;-78
2024/02/25 06:35:00;;;;;;;8.88;4.20;;;5.50;99.90;;;;;;5038366;28;20037;-79
2024/02/25 06:37:29;;;;;;;9.63;4.78;;;5.40;99.90;;;;;;5038280;28;20437;-78
2024/02/25 06:39:56;;;;;;;9.63;5.05;;;;;;;;;;5038217;28;20024;-78
2024/02/25 06:42:21;;;;;;;10.70;4.53;;;5.50;99.90;;;;;;5037011;28;20041;-78
2024/02/25 06:44:48;;;;;;;9.43;4.55;;;;;;;;;;5036005;28;20018;-77
2024/02/25 06:47:13;;;;;;;10.25;4.55;;;5.50;99.90;;;;;;5037282;28;20022;-78
2024/02/25 06:49:42;;;;;;;11.27;4.88;;;5.50;99.90;;;;;;5035940;28;20539;-78
2024/02/25 06:52:09;;;;;;;13.30;4.93;;;5.50;99.90;;;;;;5038542;28;20026;-80
2024/02/25 06:54:35;;;;;;;9.93;4.85;;;5.40;99.90;;;;;;5040184;28;20393;-80
2024/02/25 06:57:00;;;;;;;11.10;5.35;;;5.40;99.90;;;;;;5039591;28;20083;-79
2024/02/25 06:59:27;;;;;;;12.88;5.80;;;5.50;99.90;;;;;;5038270;28;20030;-79
2024/02/25 07:01:53;;;;;;;12.13;6.05;;;5.50;99.90;;;;;;5039043;28;20059;-79
2024/02/25 07:04:19;;;;;;;9.68;4.68;;;5.50;99.90;;;;;;5040620;28;20033;-80
2024/02/25 07:06:45;;;;;;;12.20;5.47;;;;;;;;;;5039697;28;20100;-80
2024/02/25 07:09:11;;;;;;;11.27;5.32;;;5.50;99.90;;;;;;5038277;28;20029;-79
2024/02/25 07:11:37;;;;;;;14.13;5.57;;;6.70;99.90;;;;;;5040320;28;20026;-80
2024/02/25 07:14:02;;;;;;;11.88;5.40;;;5.50;99.90;;;;;;5038557;28;20030;-80
2024/02/25 07:16:28;;;;;;;14.50;6.03;;;;;;;;;;5040118;28;20036;-80
2024/02/25 07:18:54;;;;;;;13.98;5.95;;;5.60;99.90;;;;;;5038570;28;20393;-80
2024/02/25 07:21:20;;;;;;;11.50;5.53;;;;;;;;;;5038982;28;20068;-79
2024/02/25 07:23:45;;;;;;;12.23;5.40;;;5.50;99.90;;;;;;5040964;28;20377;-80
2024/02/25 07:26:12;;;;;;;13.05;5.95;;;5.50;99.90;;;;;;5039569;28;20018;-80
2024/02/25 07:28:42;;;;;;;10.77;5.80;;;5.60;99.90;;;;;;5038095;28;20034;-80
2024/02/25 07:31:18;;;;;;;11.98;6.05;;;5.50;99.90;;;;;;5038677;28;20393;-80
2024/02/25 07:33:46;;;;;;;10.75;5.65;;;5.40;99.90;;;;;;5037766;28;20049;-80
2024/02/25 07:36:13;;;;;;;13.90;5.65;;;5.40;99.90;;;;;;5037633;28;20048;-80
2024/02/25 07:38:40;;;;;;;15.85;6.22;;;5.50;99.90;;;;;;5038006;28;20029;-79
2024/02/25 07:41:06;;;;;;;14.43;5.95;;;;;;;;;;5037703;28;20432;-80
2024/02/25 07:43:33;;;;;;;12.68;6.20;;;5.50;99.90;;;;;;5038652;28;20025;-80
2024/02/25 07:45:59;;;;;;;12.60;6.28;;;5.50;99.90;;;;;;5039154;28;20029;-80
2024/02/25 07:48:25;;;;;;;10.65;5.90;;;5.50;99.90;;;;;;5038218;28;20053;-81
2024/02/25 07:50:51;;;;;;;10.77;5.18;;;5.50;99.90;;;;;;5036936;28;20044;-80
2024/02/25 07:53:16;;;;;;;14.93;6.13;;;5.50;99.90;;;;;;5038785;28;20053;-80
2024/02/25 07:55:42;;;;;;;11.07;5.68;;;5.60;99.90;;;;;;5038040;28;20554;-80
2024/02/25 07:58:08;;;;;;;12.93;6.10;;;;;;;;;;5038923;28;20025;-80
2024/02/25 08:00:34;;;;;;;12.30;5.82;;;;;;;;;;5039756;28;20033;-80
2024/02/25 08:03:01;;;;;;;10.68;5.88;;;;;;;;;;5037088;28;20040;-80
2024/02/25 08:05:27;;;;;;;12.52;6.57;;;5.80;99.90;;;;;;5037235;28;20025;-80
2024/02/25 08:07:53;;;;;;;15.85;6.47;;;5.90;99.90;;;;;;5037048;28;20022;-80
2024/02/25 08:10:23;;;;;;;11.38;5.55;;;6.00;99.90;;;;;;5036807;28;20040;-79
2024/02/25 08:12:50;;;;;;;11.82;6.13;;;;;;;;;;5037088;28;20018;-79
2024/02/25 08:15:16;;;;;;;16.33;6.55;;;;;;;;;;5038943;28;20104;-80
2024/02/25 08:17:42;;;;;;;12.13;6.03;;;;;;;;;;5036451;28;20072;-80
2024/02/25 08:20:09;;;;;;;14.82;6.45;;;6.30;99.90;;;;;;5038049;28;20021;-79
2024/02/25 08:22:38;;;;;;;11.52;5.90;;;6.30;99.90;;;;;;5037493;28;20091;-80
2024/02/25 08:25:09;;;;;;;13.48;6.68;;;6.40;99.90;;;;;;5038345;28;20091;-80
2024/02/25 08:27:35;;;;;;;11.45;5.85;;;;;;;;;;5037296;28;20431;-79
2024/02/25 08:30:02;;;;;;;11.43;5.57;;;6.50;99.90;;;;;;5037910;28;20044;-79
2024/02/25 08:32:28;;;;;;;12.32;6.22;;;;;;;;;;5037222;28;20032;-80
2024/02/25 08:34:54;;;;;;;12.05;6.28;;;;;;;;;;5036851;28;20069;-79
2024/02/25 08:37:27;;;;;;;11.75;5.90;;;6.60;99.90;;;;;;5039098;28;20048;-79
2024/02/25 08:39:53;;;;;;;11.52;5.50;;;6.60;99.90;;;;;;5037145;28;20378;-81
2024/02/25 08:42:23;;;;;;;11.32;6.40;;;6.60;99.90;;;;;;5040764;28;20416;-81
2024/02/25 08:44:49;;;;;;;13.23;6.50;;;6.80;99.90;;;;;;5041791;28;20028;-82
2024/02/25 08:47:15;;;;;;;14.15;6.55;;;6.80;99.90;;;;;;5040922;28;20021;-82
2024/02/25 08:49:42;;;;;;;11.25;6.50;;;6.90;99.90;;;;;;5044296;28;20051;-79
2024/02/25 08:52:08;;;;;;;14.93;6.75;;;6.90;99.90;;;;;;5048360;28;20024;-78
2024/02/25 08:54:38;;;;;;;15.77;6.57;;;7.00;99.90;;;;;;5047229;28;20022;-79
2024/02/25 08:57:08;;;;;;;11.73;5.90;;;7.00;99.90;;;;;;5051787;28;20022;-79
2024/02/25 08:59:33;;;;;;;;;;;7.10;99.90;;;;;;5049499;28;20029;-79
2024/02/25 09:02:04;;;;;;;13.63;6.60;;;7.20;99.90;;;;;;5048245;28;19992;-79
2024/02/25 09:04:31;;;;;;;16.10;6.63;;;7.30;99.90;;;;;;5042208;28;20025;-81
2024/02/25 09:06:58;;;;;;;15.60;7.45;;;7.20;99.90;;;;;;5039081;28;20389;-80
2024/02/25 09:09:24;;;;;;;13.45;6.53;;;7.30;99.90;;;;;;5039325;28;20528;-79
2024/02/25 09:11:49;;;;;;;13.48;7.00;;;7.30;99.90;;;;;;5038733;28;20037;-79
2024/02/25 09:14:15;;;;;;;13.25;6.45;;;7.30;99.90;;;;;;5039244;28;20026;-80
2024/02/25 09:16:41;;;;;;;16.25;7.32;;;7.30;99.90;;;;;;5038718;28;20021;-79
2024/02/25 09:19:07;;;;;;;15.98;7.43;;;7.40;99.90;;;;;;5039265;28;20063;-79
2024/02/25 09:21:32;;;;;;;14.82;6.57;;;7.50;99.90;;;;;;5040547;28;20104;-78
2024/02/25 09:23:58;;;;;;;15.13;8.13;;;7.50;99.90;;;;;;5038403;28;20014;-79
2024/02/25 09:26:24;;;;;;;13.65;7.43;;;7.60;99.90;;;;;;5039252;28;20465;-80
2024/02/25 09:28:50;;;;;;;13.60;7.18;;;7.60;99.90;;;;;;5037413;28;20021;-78
2024/02/25 09:31:19;;;;;;;16.50;7.85;;;7.70;99.90;;;;;;5038043;28;20052;-78
2024/02/25 09:33:50;;;;;;;16.45;7.63;;;7.80;99.90;;;;;;5037572;28;20117;-79
2024/02/25 09:36:23;;;;;;;18.58;8.18;;;7.80;99.90;;;;;;5038508;28;20030;-79
2024/02/25 09:38:49;;;;;;;16.50;7.30;;;7.70;99.90;;;;;;5037999;28;20013;-79
2024/02/25 09:41:22;;;;;;;14.57;7.65;;;7.70;99.90;;;;;;5037222;28;20032;-79
2024/02/25 09:43:52;;;;;;;13.15;6.65;;;7.80;99.90;;;;;;5039190;28;20021;-81
2024/02/25 09:46:19;;;;;;;13.25;6.63;;;7.70;99.90;;;;;;5042124;28;20027;-80
2024/02/25 09:48:52;;;;;;;14.80;6.80;;;7.70;99.90;;;;;;5039831;28;20013;-79
2024/02/25 09:51:22;;;;;;;14.50;7.13;;;7.70;99.90;;;;;;5038644;28;20136;-78
2024/02/25 09:53:52;;;;;;;12.65;7.00;;;7.80;99.90;;;;;;5038752;28;20025;-79
2024/02/25 09:56:21;;;;;;;13.73;6.90;;;8.00;99.90;;;;;;5039157;28;20087;-79
2024/02/25 09:58:48;;;;;;;13.35;6.20;;;8.10;99.90;;;;;;5039078;28;20018;-79
2024/02/25 10:01:14;;;;;;;11.75;5.50;;;8.10;99.90;;;;;;5041623;28;20017;-80
2024/02/25 10:03:41;;;;;;;14.57;6.72;;;8.10;99.90;;;;;;5041548;28;20037;-80
2024/02/25 10:06:08;;;;;;;14.20;6.68;;;8.10;99.90;;;;;;5041013;28;20030;-80
2024/02/25 10:08:45;;;;;;;11.52;6.22;;;8.20;99.90;;;;;;5041593;28;20365;-80
2024/02/25 10:11:12;;;;;;;11.95;6.32;;;8.20;99.90;;;;;;5042138;28;20029;-80
2024/02/25 10:13:37;;;;;;;11.25;5.20;;;8.20;99.90;;;;;;5042343;28;20040;-80
2024/02/25 10:16:03;;;;;;;9.98;5.30;;;8.30;99.90;;;;;;5040994;28;20432;-80
2024/02/25 10:18:29;;;;;;;9.68;5.25;;;8.30;99.90;;;;;;5040092;28;20044;-80
2024/02/25 10:21:02;;;;;;;9.13;4.95;;;8.30;99.90;;;;;;5041081;28;20061;-80
2024/02/25 10:23:28;;;;;;;10.55;5.10;;;8.30;99.90;;;;;;5035161;28;20083;-81
2024/02/25 10:26:13;;;;;;;9.88;5.50;;;8.30;99.90;;;;;;5040619;28;20068;-80
2024/02/25 10:28:39;;;;;;;7.90;4.35;;;;;;;;;;5040045;28;20030;-80
2024/02/25 10:31:05;;;;;;;9.77;4.60;;;8.30;99.90;;;;;;5041138;28;20033;-80
2024/02/25 10:33:31;;;;;;;8.73;5.07;;;;;;;;;;5042578;28;20025;-80
2024/02/25 10:36:19;;;;;;;11.13;5.47;;;8.50;99.90;;;;;;5038658;28;20494;-80
2024/02/25 10:38:46;;;;;;;10.13;4.32;;;8.80;99.90;;;;;;5039544;28;20021;-80
2024/02/25 10:41:13;;;;;;;10.40;4.25;;;8.90;99.90;;;;;;5039989;28;20025;-80
2024/02/25 10:43:39;;;;;;;8.52;4.88;;;8.90;99.90;;;;;;5039780;28;20030;-81
2024/02/25 10:46:24;;;;;;;8.45;4.75;;;9.20;99.90;;;;;;5039956;28;20487;-83
2024/02/25 10:48:50;;;;;;;9.57;4.18;;;9.10;99.90;;;;;;5039369;28;20021;-82
2024/02/25 10:51:19;;;;;;;15.07;5.68;;;9.10;99.90;;;;;;5039476;28;20500;-80
2024/02/25 10:53:45;;;;;;;6.93;4.18;;;9.00;99.90;;;;;;5039266;28;20029;-82
2024/02/25 10:56:18;;;;;;;10.35;4.63;;;9.00;99.90;;;;;;5040186;28;20477;-82
2024/02/25 10:58:46;;;;;;;7.45;3.78;;;8.90;99.90;;;;;;5040605;28;20022;-82
2024/02/25 11:01:13;;;;;;;6.65;3.80;;;8.90;99.90;;;;;;5040113;28;20026;-82
2024/02/25 11:03:40;;;;;;;5.30;3.15;;;9.00;99.90;;;;;;5039697;28;20052;-82
2024/02/25 11:06:07;;;;;;;7.30;3.67;;;9.30;99.90;;;;;;5039618;28;20362;-83
2024/02/25 11:08:34;;;;;;;6.75;3.78;;;9.40;99.90;;;;;;5040575;28;20017;-80
2024/02/25 11:11:00;;;;;;;7.43;4.05;;;9.50;99.90;;;;;;5042003;28;20043;-83
2024/02/25 11:13:26;;;;;;;8.68;3.65;;;9.50;99.90;;;;;;5040926;28;20457;-80
2024/02/25 11:15:55;;;;;;;8.63;4.78;;;9.50;99.90;;;;;;5039175;28;20143;-82
2024/02/25 11:18:30;;;;;;;6.63;3.42;;;9.40;99.90;;;;;;5039063;28;20245;-80
2024/02/25 11:21:07;;;;;;;6.63;3.58;;;9.40;99.90;;;;;;5039832;28;20025;-82
2024/02/25 11:23:43;;;;;;;7.53;4.00;;;9.30;99.90;;;;;;5039483;28;20084;-80
2024/02/25 11:26:33;;;;;;;7.20;3.58;;;9.10;99.90;;;;;;5039433;28;20022;-79
2024/02/25 11:29:20;;;;;;;9.23;4.32;;;9.10;99.90;;;;;;5039413;28;20044;-80
2024/02/25 11:32:02;;;;;;;9.13;4.85;;;8.90;99.90;;;;;;5039927;28;20539;-80
2024/02/25 11:34:35;;;;;;;10.63;4.38;;;8.80;99.90;;;;;;5038977;28;20026;-80
2024/02/25 11:37:03;;;;;;;8.63;3.58;;;8.70;99.90;;;;;;5038784;28;20038;-80
2024/02/25 11:39:30;;;;;;;6.60;3.10;;;8.60;99.90;;;;;;5039047;28;20021;-80
2024/02/25 11:42:01;;;;;;;5.20;3.15;;;8.60;99.90;;;;;;5040178;28;20029;-80
2024/02/25 11:44:29;;;;;;;7.50;3.00;;;8.70;99.90;;;;;;5039092;28;20049;-80
2024/02/25 11:47:07;;;;;;;5.50;2.93;;;8.80;99.90;;;;;;5040151;28;20030;-80
2024/02/25 11:49:34;;;;;;;7.20;3.03;;;8.80;99.90;;;;;;5038441;28;20064;-80
2024/02/25 11:52:00;;;;;;;7.13;2.80;;;9.10;99.90;;;;;;5039212;28;20022;-80
2024/02/25 11:54:30;;;;;;;5.78;3.47;;;9.20;99.90;;;;;;5038982;28;20038;-80
2024/02/25 11:56:58;;;;;;;9.50;3.00;;;9.40;99.90;;;;;;5037512;28;20048;-80
2024/02/25 11:59:24;;;;;;;6.97;2.38;;;9.70;99.90;;;;;;5036964;28;20029;-80
2024/02/25 12:01:51;;;;;;;6.28;2.55;;;9.80;99.90;;;;;;5036577;28;20025;-80
2024/02/25 12:04:19;;;;;;;7.68;2.60;;;9.80;99.90;;;;;;5038491;28;20030;-80
2024/02/25 12:06:46;;;;;;;6.95;2.83;;;9.70;99.90;;;;;;5037376;28;20108;-78
2024/02/25 12:09:14;;;;;;;4.22;2.50;;;9.60;99.90;;;;;;5039200;28;20043;-78
2024/02/25 12:11:39;;;;;;;8.25;2.88;;;9.60;99.90;;;;;;5040576;28;20500;-78
2024/02/25 12:14:14;;;;;;;4.20;2.22;;;9.50;99.90;;;;;;5040522;28;20018;-78
2024/02/25 12:16:40;;;;;;;6.53;2.50;;;9.30;99.90;;;;;;5040163;28;20030;-78
2024/02/25 12:19:09;;;;;;;4.15;2.17;;;9.20;99.90;;;;;;5041024;28;20029;-78
2024/02/25 12:21:35;;;;;;;5.18;2.58;;;9.00;99.90;;;;;;5040582;28;20025;-78
2024/02/25 12:24:03;;;;;;;4.32;2.33;;;8.90;99.90;;;;;;5040855;28;20116;-78
2024/02/25 12:26:46;;;;;;;5.80;2.53;;;8.80;99.90;;;;;;5039554;28;20018;-78
2024/02/25 12:29:12;;;;;;;7.57;2.80;;;8.80;99.90;;;;;;5042075;28;20416;-78
2024/02/25 12:31:37;;;;;;;6.93;2.55;;;8.70;99.90;;;;;;5041327;28;20077;-78
2024/02/25 12:34:03;;;;;;;7.07;2.78;;;8.70;99.90;;;;;;5041898;28;20028;-79
2024/02/25 12:36:29;;;;;;;4.70;2.35;;;8.70;99.90;;;;;;5040748;28;20034;-78
2024/02/25 12:38:54;;;;;;;5.85;2.55;;;8.70;99.90;;;;;;5040402;28;20162;-78
2024/02/25 12:41:20;;;;;;;5.95;2.50;;;8.70;99.90;;;;;;5038707;28;20121;-78
2024/02/25 12:43:51;;;;;;;5.55;2.20;;;8.70;99.90;;;;;;5038457;28;20500;-78
2024/02/25 12:46:20;;;;;;;4.32;1.90;;;8.70;99.90;;;;;;5040794;28;20060;-78
2024/02/25 12:48:46;;;;;;;6.28;2.60;;;8.80;99.90;;;;;;5040638;28;20075;-84
2024/02/25 12:51:19;;;;;;;5.43;2.13;;;8.80;99.90;;;;;;5038158;28;20025;-78
2024/02/25 12:53:46;;;;;;;4.47;2.35;;;9.10;99.90;;;;;;5037840;28;20396;-78
2024/02/25 12:56:13;;;;;;;5.82;2.08;;;9.40;99.90;;;;;;5038886;28;20022;-78
2024/02/25 12:58:43;;;;;;;5.20;2.55;;;9.70;99.90;;;;;;5040554;28;20056;-78
2024/02/25 13:01:10;;;;;;;7.00;2.60;;;10.00;99.90;;;;;;5039802;28;20021;-78
2024/02/25 13:03:37;;;;;;;6.28;2.13;;;10.00;99.90;;;;;;5038131;28;20021;-78